Vint Hill, VA (20188)

11:03 PM EDT on September 02, 2014 (GMT -0400)
Edgemont | Change Station
CLOSE
Current Station
Personal Weather Station
Location: Warrenton, VA
Elevation: 558 ft
Nearby Weather Stations

Elev 558 ft 38.71 °N, 77.79 °W | Updated 7 minutes ago

Partly Cloudy
Partly Cloudy
74.8 °F
Feels Like 73 °F
N
2.2
Wind Variable Wind from South

Today
High -- | Low -- °F
--% Chance of Precip.
Yesterday
High -- | Low -- °F
Precip. -- in
6:41 AM 7:39 PM
First Quarter, 57% visible
Pressure 29.91 in
Visibility 10.0 miles
Clouds Scattered Clouds 9000 ft
Scattered Clouds 12000 ft
Heat Index 73 °F
Dew Point 73 °F
Humidity 95%
Rainfall 0.00 in
Snow Depth Not available.
UV 0 out of 12
Pollen 9.30 out of 12
Air Quality Not available.
Flu Activity Not available.
METAR KHWY 030255Z AUTO 19003KT 10SM SCT090 SCT120 24/24 A2991 RMK AO2 LTG DSNT SE AND S T02400240

More Conditions Fewer Conditions

Pressure 29.91 in
Visibility 10.0 miles
Clouds Scattered Clouds 9000 ft
Scattered Clouds 12000 ft
Heat Index 73 °F
Dew Point 73 °F
Humidity 95%
Rainfall 0.00 in
Snow Depth Not available.
UV 0 out of 12
Pollen 9.30 out of 12
Air Quality Not available.
Flu Activity Not available.
METAR KHWY 030255Z AUTO 19003KT 10SM SCT090 SCT120 24/24 A2991 RMK AO2 LTG DSNT SE AND S T02400240

More Conditions Fewer Conditions

10-Day Weather Forecast

Almanac

Astronomy

Sep. 02, 2014 Rise Set
Actual Time 6:41 AM EDT 7:39 PM EDT
Civil Twilight 6:14 AM EDT 8:07 PM EDT
Nautical Twilight 5:41 AM EDT 8:39 PM EDT
Astronomical Twilight 5:08 AM EDT 9:12 PM EDT
Moon 2:19 PM EDT (9/2) No Moon Set
Length of Visible Light 13h 52m
Length of Day
12h 58m
Tomorrow will be 2m 25s shorter.
First Quarter, 57% of the Moon is Illuminated
Today
First Quarter
Sep 8
Full
Sep 15
Last Quarter
Sep 24
New
Oct 1
First Quarter

Today's Extremes

State Highs State Lows

Community

WunderPhotos

Upload Photos

1,749,860 photos uploaded!

Nearby

Snow Depth

Station Depth Elevation
No new snow has been reported.

Earthquake Activity

City Distance Mag. Time & Date
No recent earthquake activity has been reported nearby.
Minimum magnitude displayed is 2.5.

Coastal Water Temperatures

Place Temperature
No Stations Reporting

Nearby Weather Stations